Metar Cercanos

 

LEPA - Palma De Mallorc, Spain
Distance from station: ONO 38km
Actualización: Fri, 22-Jan-2021 9:30am CET
Muy nuboso
Muy nuboso
 Viento del SSO
Viento: SSO 35 km/h, Racha: 57 km/h
Temperatura: 15°C
Rocío: 13°C
Humedad: 88%
Barómetro: 1003 hPa
Clouds: Muy nuboso
Visibility: 10 km
Cloud details: Few Clouds 671 m
Muy nuboso 2103 m
2021/01/22 08:30 LEPA 220830Z 21019G31KT 190V250 9999 FEW022 BKN069 15/13 Q1003 NOSIG
LEMH - Mahon/Menorca Is, Spain
Distance from station: ENE 105km
Actualización: Fri, 22-Jan-2021 9:30am CET
Parcialmente nuboso
Parcialmente nuboso
 Viento del SO
Viento: SO 31 km/h, Racha: 52 km/h
Temperatura: 14°C
Rocío: 12°C
Humedad: 88%
Barómetro: 1004 hPa
Clouds: Parcialmente nuboso
Visibility: 7 km
Cloud details: Parcialmente nuboso 244 m
2021/01/22 08:30 LEMH 220830Z 22017G28KT 180V250 7000 SCT008 14/12 Q1004
 
LEIB - Ibiza/Es Codola, Spain
Distance from station: OSO 165km
Actualización: Fri, 22-Jan-2021 9:30am CET
Parcialmente nuboso
Parcialmente nuboso
 Viento del SSO
Viento: SSO 41 km/h
Temperatura: 15°C
Rocío: 13°C
Humedad: 88%
Barómetro: 1004 hPa
Clouds: Parcialmente nuboso
Visibility: 10 km
Cloud details: Parcialmente nuboso 396 m
2021/01/22 08:30 LEIB 220830Z 21022KT 9999 SCT013 15/13 Q1004 NOSIG
LEBL - Barcelona Airpor, Spain
Distance from station: NNO 225km
Actualización: Fri, 22-Jan-2021 9:30am CET
Few Clouds
Few Clouds
 Viento del OSO
Viento: OSO 37 km/h
Temperatura: 14°C
Rocío: 11°C
Humedad: 82%
Barómetro: 999 hPa
Clouds: Few Clouds
Visibility: 10 km
Cloud details: Few Clouds 914 m
2021/01/22 08:30 LEBL 220830Z 24020KT 9999 FEW030CB 14/11 Q0999 TEMPO 27030G45KT 4000 TSRA
 
LEVC - Valencia (civ/Mi, Spain
Distance from station: NO 188km
Actualización: Fri, 22-Jan-2021 9:35am CET
Few Clouds
Few Clouds
 Viento del ONO
Viento: ONO 54 km/h, Racha: 83 km/h
Temperatura: 14°C
Rocío: 7°C
Humedad: 63%
Barómetro: 1006 hPa
Clouds: Few Clouds
Visibility: 10 km
Cloud details: Few Clouds 762 m
Muy nuboso 1524 m
Few Clouds 1676 m
2021/01/22 08:35 LEVC 220835Z 30029G45KT 9999 FEW025 BKN050 FEW055CB 14/07 Q1006 RETS NOSIG
LEGE - Gerona/Costa Bra, Spain
Distance from station: N 276km
Actualización: Fri, 22-Jan-2021 9:30am CET
Lluvia débil, Parcialmente nuboso
Lluvia débil, Parcialmente nuboso
 Viento del S
Viento: S 30 km/h, Racha: 48 km/h
Temperatura: 12°C
Rocío: 9°C
Humedad: 82%
Barómetro: 996 hPa
Resumen: Lluvia débil
Clouds: Parcialmente nuboso
Visibility: 10 km
Cloud details: Few Clouds 1524 m
Parcialmente nuboso 2438 m
2021/01/22 08:30 LEGE 220830Z 19016G26KT 170V230 9999 -RA FEW050 SCT080 12/09 Q0996
 
LEAL - Alicante/El Alte, Spain
Distance from station: OSO 344km
Actualización: Fri, 22-Jan-2021 9:30am CET
Despejado
Despejado
 Viento del ONO
Viento: ONO 9 km/h
Temperatura: 12°C
Rocío: 8°C
Humedad: 77%
Barómetro: 1008 hPa
Resumen: Despejado
Visibility: greater than 10 km
2021/01/22 08:30 LEAL 220830Z 30005KT 250V340 CAVOK 12/08 Q1008 NOSIG
LEAM - Almeria Airport, Spain
Distance from station: SSO 56km
Actualización: Fri, 22-Jan-2021 9:30am CET
Parcialmente nuboso
Parcialmente nuboso
 Viento del O
Viento: O 41 km/h, Racha: 63 km/h
Temperatura: 16°C
Rocío: 14°C
Humedad: 88%
Barómetro: 1013 hPa
Clouds: Parcialmente nuboso
Visibility: 10 km
Cloud details: Parcialmente nuboso 305 m
Parcialmente nuboso 457 m
2021/01/22 08:30 LEAM 220830Z 26022G34KT 9999 SCT010 SCT015 16/14 Q1013
 
LEZG - Zaragoza (mil/Ci, Spain
Distance from station: NO 431km
Actualización: Fri, 22-Jan-2021 9:30am CET
Parcialmente nuboso
Parcialmente nuboso
 Viento del O
Viento: O 31 km/h
Temperatura: 11°C
Rocío: 3°C
Humedad: 58%
Barómetro: 1001 hPa
Clouds: Parcialmente nuboso
Visibility: 10 km
Cloud details: Few Clouds 1829 m
Parcialmente nuboso 2591 m
2021/01/22 08:30 LEZG 220830Z 26017KT 9999 FEW060 SCT085 11/03 Q1001
LEMD - Madrid/Barajas, Spain
Distance from station: ONO 234km
Actualización: Fri, 22-Jan-2021 9:30am CET
Despejado
Despejado
 Viento del OSO
Viento: OSO 28 km/h
Temperatura: 8°C
Sensación frio: 4°C
Rocío: 4°C
Humedad: 76%
Barómetro: 1007 hPa
Resumen: Despejado
Visibility: greater than 10 km
2021/01/22 08:30 LEMD 220830Z 25015KT CAVOK 08/04 Q1007 R88/29//95 NOSIG
 
LEGR - Granada Airport, Spain
Distance from station: OSO 62km
Actualización: Fri, 22-Jan-2021 9:30am CET
Muy nuboso
Muy nuboso
 Viento del O
Viento: O 26 km/h
Temperatura: 12°C
Rocío: 9°C
Humedad: 82%
Barómetro: 1017 hPa
Clouds: Muy nuboso
Visibility: 10 km
Cloud details: Few Clouds 610 m
Muy nuboso 1219 m
2021/01/22 08:30 LEGR 220830Z 28014KT 250V320 9999 FEW020 BKN040 12/09 Q1017
LEMG - Malaga (civ/Mil), Spain
Distance from station: OSO 227km
Actualización: Fri, 22-Jan-2021 9:30am CET
Parcialmente nuboso
Parcialmente nuboso
 Viento del NO
Viento: NO 6 km/h
Temperatura: 13°C
Rocío: 11°C
Humedad: 88%
Barómetro: 1016 hPa
Clouds: Parcialmente nuboso
Visibility: 10 km
Cloud details: Parcialmente nuboso 1524 m
2021/01/22 08:30 LEMG 220830Z 32003KT 9999 SCT050 13/11 Q1016 NOSIG
 
LEZL - Sevilla (civ/Mil, Spain
Distance from station: S 318km
Actualización: Fri, 22-Jan-2021 9:30am CET
Few Clouds
Few Clouds
 Viento del OSO
Viento: OSO 19 km/h
Temperatura: 14°C
Rocío: 11°C
Humedad: 82%
Barómetro: 1018 hPa
Clouds: Few Clouds
Visibility: 10 km
Cloud details: Few Clouds 914 m
2021/01/22 08:30 LEZL 220830Z 25010KT 220V290 9999 FEW030 14/11 Q1018 NOSIG
LEVT - Vitoria, Spain
Distance from station: NO 226km
Actualización: Fri, 22-Jan-2021 9:30am CET
Lluvia débil, Muy nuboso
Lluvia débil, Muy nuboso
 Viento del OSO
Viento: OSO 24 km/h
Temperatura: 7°C
Sensación frio: 3°C
Rocío: 3°C
Humedad: 76%
Barómetro: 1000 hPa
Resumen: Lluvia débil
Clouds: Muy nuboso
Visibility: 10 km
Cloud details: Muy nuboso 1158 m
Muy nuboso 1372 m
2021/01/22 08:30 LEVT 220830Z 25013KT 200V280 9999 -RA BKN038 BKN045 07/03 Q1000
 
LEBB - Bilbao/Sondica, Spain
Distance from station: NNO 235km
Actualización: Fri, 22-Jan-2021 9:30am CET
Lluvia débil, Muy nuboso
Lluvia débil, Muy nuboso
 Viento del O
Viento: O 20 km/h, Racha: 41 km/h
Temperatura: 10°C
Sensación frio: 7°C
Rocío: 7°C
Humedad: 82%
Barómetro: 1001 hPa
Resumen: Lluvia débil
Clouds: Muy nuboso
Visibility: 10 km
Cloud details: Few Clouds 610 m
Parcialmente nuboso 1067 m
Muy nuboso 1524 m
2021/01/22 08:30 LEBB 220830Z 26011G22KT 230V290 9999 -RA FEW020 SCT035 BKN050 10/07 Q1001 TEMPO 3000 RA BKN010
LESO - San Sebastian/Fu, Spain
Distance from station: N 231km
Actualización: Fri, 22-Jan-2021 9:30am CET
Cubierto
Cubierto
 Viento del SO
Viento: SO 19 km/h
Temperatura: 10°C
Sensación frio: 7°C
Rocío: 7°C
Humedad: 82%
Barómetro: 999 hPa
Clouds: Cubierto
Visibility: 10 km
Cloud details: Parcialmente nuboso 1006 m
Cubierto 1341 m
2021/01/22 08:30 LESO 220830Z 23010KT 200V260 9999 SCT033 OVC044 10/07 Q0999
 
LEVD - Valladolid(Mil/C, Spain
Distance from station: ONO 239km
Actualización: Fri, 22-Jan-2021 9:30am CET
Muy nuboso
Muy nuboso
 Viento del O
Viento: O 44 km/h
Temperatura: 5°C
Sensación frio: -1°C
Rocío: 3°C
Humedad: 87%
Barómetro: 1005 hPa
Clouds: Muy nuboso
Visibility: 10 km
Cloud details: Muy nuboso 396 m
2021/01/22 08:30 LEVD 220830Z 26024KT 9999 BKN013 05/03 Q1005
LESA - Salamanca (civ/M, Spain
Distance from station: ONO 349km
Actualización: Fri, 22-Jan-2021 9:30am CET
Muy nuboso
Muy nuboso
 Viento del O
Viento: O 44 km/h
Temperatura: 5°C
Sensación frio: -1°C
Rocío: 3°C
Humedad: 87%
Barómetro: 1008 hPa
Clouds: Muy nuboso
Visibility: 10 km
Cloud details: Muy nuboso 488 m
Muy nuboso 671 m
2021/01/22 08:30 LESA 220830Z 26024KT 9999 4000NW BKN016 BKN022 05/03 Q1008
 
LEXJ - Santander/Paraya, Spain
Distance from station: NNO 247km
Actualización: Fri, 22-Jan-2021 9:30am CET
Lluvia, Cubierto
Lluvia, Cubierto
 Viento del O
Viento: O 41 km/h, Racha: 63 km/h
Temperatura: 9°C
Sensación frio: 4°C
Rocío: 8°C
Humedad: 94%
Barómetro: 1003 hPa
Resumen: Lluvia
Clouds: Cubierto
Visibility: 2 km
Cloud details: Few Clouds 396 m
Muy nuboso 732 m
Cubierto 1067 m
2021/01/22 08:30 LEXJ 220830Z 28022G34KT 2300 RA FEW013 BKN024 OVC035 09/08 Q1003
LEAS - Asturias/Aviles, Spain
Distance from station: NO 214km
Actualización: Fri, 22-Jan-2021 9:30am CET
Muy nuboso
Muy nuboso
 Viento del ONO
Viento: ONO 30 km/h
Temperatura: 8°C
Sensación frio: 4°C
Rocío: 5°C
Humedad: 82%
Barómetro: 1006 hPa
Clouds: Muy nuboso
Visibility: 10 km
Cloud details: Parcialmente nuboso 914 m
Muy nuboso 1676 m
2021/01/22 08:30 LEAS 220830Z 30016KT 260V320 9999 SCT030TCU BKN055 08/05 Q1006 TEMPO 3000 SHRA
 
LECO - La Coruna/Alvedr, Spain
Distance from station: ONO 222km
Actualización: Fri, 22-Jan-2021 9:30am CET
Muy nuboso
Muy nuboso
 Viento del O
Viento: O 15 km/h
Temperatura: 9°C
Sensación frio: 7°C
Rocío: 5°C
Humedad: 76%
Barómetro: 1008 hPa
Clouds: Muy nuboso
Visibility: 10 km
Cloud details: Few Clouds 579 m
Parcialmente nuboso 853 m
Muy nuboso 1372 m
2021/01/22 08:30 LECO 220830Z 28008KT 240V320 9999 FEW019 SCT028 BKN045 09/05 Q1008 TEMPO 3000 RA BKN014
LEVX - Vigo/Peinador, Spain
Distance from station: O 214km
Actualización: Fri, 22-Jan-2021 9:30am CET
Muy nuboso
Muy nuboso
 Viento del ONO
Viento: ONO 13 km/h
Temperatura: 9°C
Sensación frio: 7°C
Rocío: 6°C
Humedad: 82%
Barómetro: 1010 hPa
Clouds: Muy nuboso
Visibility: 10 km
Cloud details: Parcialmente nuboso 914 m
Muy nuboso 1524 m
2021/01/22 08:30 LEVX 220830Z 29007KT 240V330 9999 SCT030 BKN050 09/06 Q1010 TEMPO 3000 RA BKN010